Terminal Aerodrome Forecast
Issued by NWS

Home | Current Version | Previous Version | Text Only | Print | Product List | Glossary On
Versions: 1 2 3 4 5 6 7 8 9 10 11 12 13 14 15
099
FTUS44 KBMX 072340
TAFTCL
TAF
KTCL 072340Z 0800/0824 32005KT P6SM OVC025
     FM080800 35009KT P6SM OVC050
     FM081500 36011G18KT P6SM OVC200=

USA.gov is the U.S. government's official web portal to all federal, state and local government web resources and services.